sensor_id;sensor_type;location;lat;lon;timestamp;pressure;altitude;pressure_sealevel;temperature;humidity
41513;BME280;27244;59.940;30.280;2023-05-12T00:00:31;102328.88;;;23.75;31.35
41513;BME280;27244;59.940;30.280;2023-05-12T00:02:58;102330.88;;;23.78;31.02
41513;BME280;27244;59.940;30.280;2023-05-12T00:05:27;102336.50;;;23.78;30.85
41513;BME280;27244;59.940;30.280;2023-05-12T00:07:55;102324.84;;;23.76;31.36
41513;BME280;27244;59.940;30.280;2023-05-12T00:10:22;102331.69;;;23.78;31.12
41513;BME280;27244;59.940;30.280;2023-05-12T00:12:49;102328.47;;;23.76;30.86
41513;BME280;27244;59.940;30.280;2023-05-12T00:15:49;102334.09;;;23.80;30.85
41513;BME280;27244;59.940;30.280;2023-05-12T00:18:16;102326.84;;;23.79;30.88
41513;BME280;27244;59.940;30.280;2023-05-12T00:20:43;102332.06;;;23.80;30.58
41513;BME280;27244;59.940;30.280;2023-05-12T00:23:12;102327.66;;;23.79;30.82
41513;BME280;27244;59.940;30.280;2023-05-12T00:25:38;102336.09;;;23.79;30.56
41513;BME280;27244;59.940;30.280;2023-05-12T00:28:05;102327.66;;;23.79;30.75
41513;BME280;27244;59.940;30.280;2023-05-12T00:30:32;102332.06;;;23.80;30.68
41513;BME280;27244;59.940;30.280;2023-05-12T00:32:59;102328.47;;;23.80;30.90
41513;BME280;27244;59.940;30.280;2023-05-12T00:35:26;102338.94;;;23.79;30.69
41513;BME280;27244;59.940;30.280;2023-05-12T00:37:53;102330.88;;;23.78;30.86
41513;BME280;27244;59.940;30.280;2023-05-12T00:40:21;102333.28;;;23.79;30.32
41513;BME280;27244;59.940;30.280;2023-05-12T00:42:48;102343.75;;;23.79;30.41
41513;BME280;27244;59.940;30.280;2023-05-12T00:45:15;102329.69;;;23.75;30.56
41513;BME280;27244;59.940;30.280;2023-05-12T00:47:43;102333.69;;;23.78;29.95
41513;BME280;27244;59.940;30.280;2023-05-12T00:50:11;102338.13;;;23.75;30.17
41513;BME280;27244;59.940;30.280;2023-05-12T00:52:38;102332.88;;;23.77;30.03
41513;BME280;27244;59.940;30.280;2023-05-12T00:55:06;102332.88;;;23.77;30.12
41513;BME280;27244;59.940;30.280;2023-05-12T00:57:34;102331.69;;;23.78;30.37
41513;BME280;27244;59.940;30.280;2023-05-12T01:00:02;102335.31;;;23.75;30.08
41513;BME280;27244;59.940;30.280;2023-05-12T01:02:30;102334.09;;;23.76;30.23
41513;BME280;27244;59.940;30.280;2023-05-12T01:04:57;102329.25;;;23.77;30.22
41513;BME280;27244;59.940;30.280;2023-05-12T01:07:25;102334.50;;;23.78;30.23
41513;BME280;27244;59.940;30.280;2023-05-12T01:09:55;102332.06;;;23.80;30.13
41513;BME280;27244;59.940;30.280;2023-05-12T01:12:26;102328.84;;;23.78;30.09
41513;BME280;27244;59.940;30.280;2023-05-12T01:14:56;102329.66;;;23.79;29.98
41513;BME280;27244;59.940;30.280;2023-05-12T01:17:28;102336.50;;;23.81;30.01
41513;BME280;27244;59.940;30.280;2023-05-12T01:19:59;102337.31;;;23.78;30.02
41513;BME280;27244;59.940;30.280;2023-05-12T01:22:28;102336.09;;;23.79;29.78
41513;BME280;27244;59.940;30.280;2023-05-12T01:24:59;102337.69;;;23.80;29.62
41513;BME280;27244;59.940;30.280;2023-05-12T01:27:30;102335.31;;;23.79;29.59
41513;BME280;27244;59.940;30.280;2023-05-12T01:30:00;102335.69;;;23.77;29.47
41513;BME280;27244;59.940;30.280;2023-05-12T01:32:32;102338.50;;;23.77;29.46
41513;BME280;27244;59.940;30.280;2023-05-12T01:34:59;102340.94;;;23.75;29.44
41513;BME280;27244;59.940;30.280;2023-05-12T01:37:28;102342.97;;;23.75;29.29
41513;BME280;27244;59.940;30.280;2023-05-12T01:39:57;102339.34;;;23.74;29.23
41513;BME280;27244;59.940;30.280;2023-05-12T01:42:24;102338.53;;;23.70;29.14
41513;BME280;27244;59.940;30.280;2023-05-12T01:44:53;102342.97;;;23.75;29.26
41513;BME280;27244;59.940;30.280;2023-05-12T01:47:20;102345.38;;;23.73;29.30
41513;BME280;27244;59.940;30.280;2023-05-12T01:49:53;102350.59;;;23.74;28.98
41513;BME280;27244;59.940;30.280;2023-05-12T01:52:20;102339.34;;;23.71;29.31
41513;BME280;27244;59.940;30.280;2023-05-12T01:54:47;102344.97;;;23.71;28.92
41513;BME280;27244;59.940;30.280;2023-05-12T01:57:16;102346.19;;;23.70;28.97
41513;BME280;27244;59.940;30.280;2023-05-12T01:59:44;102348.59;;;23.71;28.79
41513;BME280;27244;59.940;30.280;2023-05-12T02:02:13;102357.44;;;23.73;28.76
41513;BME280;27244;59.940;30.280;2023-05-12T02:04:39;102344.97;;;23.71;28.80
41513;BME280;27244;59.940;30.280;2023-05-12T02:07:07;102349.81;;;23.70;28.77
41513;BME280;27244;59.940;30.280;2023-05-12T02:09:35;102345.00;;;23.67;28.79
41513;BME280;27244;59.940;30.280;2023-05-12T02:12:02;102344.59;;;23.69;28.55
41513;BME280;27244;59.940;30.280;2023-05-12T02:14:29;102348.22;;;23.69;28.47
41513;BME280;27244;59.940;30.280;2023-05-12T02:16:57;102357.44;;;23.70;28.26
41513;BME280;27244;59.940;30.280;2023-05-12T02:19:26;102352.63;;;23.70;28.38
41513;BME280;27244;59.940;30.280;2023-05-12T02:21:54;102349.41;;;23.68;28.41
41513;BME280;27244;59.940;30.280;2023-05-12T02:24:21;102345.78;;;23.68;28.51
41513;BME280;27244;59.940;30.280;2023-05-12T02:26:48;102356.66;;;23.69;28.48
41513;BME280;27244;59.940;30.280;2023-05-12T02:29:15;102357.44;;;23.70;28.42
41513;BME280;27244;59.940;30.280;2023-05-12T02:31:43;102352.22;;;23.68;28.27
41513;BME280;27244;59.940;30.280;2023-05-12T02:34:14;102357.00;;;23.89;28.29
41513;BME280;27244;59.940;30.280;2023-05-12T02:36:42;102355.84;;;23.72;28.28
41513;BME280;27244;59.940;30.280;2023-05-12T02:39:10;102348.63;;;23.64;28.15
41513;BME280;27244;59.940;30.280;2023-05-12T02:41:38;102352.63;;;23.67;28.11
41513;BME280;27244;59.940;30.280;2023-05-12T02:44:05;102357.47;;;23.66;28.07
41513;BME280;27244;59.940;30.280;2023-05-12T02:46:32;102357.06;;;23.61;28.18
41513;BME280;27244;59.940;30.280;2023-05-12T02:48:59;102353.06;;;23.62;28.22
41513;BME280;27244;59.940;30.280;2023-05-12T02:51:26;102347.81;;;23.64;28.05
41513;BME280;27244;59.940;30.280;2023-05-12T02:53:54;102353.44;;;23.64;28.28
41513;BME280;27244;59.940;30.280;2023-05-12T02:56:21;102353.44;;;23.64;28.46
41513;BME280;27244;59.940;30.280;2023-05-12T02:58:48;102351.06;;;23.62;28.37
41513;BME280;27244;59.940;30.280;2023-05-12T03:01:15;102359.88;;;23.64;28.17
41513;BME280;27244;59.940;30.280;2023-05-12T03:03:42;102352.63;;;23.63;28.15
41513;BME280;27244;59.940;30.280;2023-05-12T03:06:09;102346.63;;;23.61;28.21
41513;BME280;27244;59.940;30.280;2023-05-12T03:08:36;102356.28;;;23.60;28.09
41513;BME280;27244;59.940;30.280;2023-05-12T03:11:29;102355.44;;;23.74;28.09
41513;BME280;27244;59.940;30.280;2023-05-12T03:13:56;102358.28;;;23.63;28.05
41513;BME280;27244;59.940;30.280;2023-05-12T03:16:23;102356.69;;;23.62;28.08
41513;BME280;27244;59.940;30.280;2023-05-12T03:18:50;102359.50;;;23.62;28.12
41513;BME280;27244;59.940;30.280;2023-05-12T03:21:17;102354.66;;;23.63;28.21
41513;BME280;27244;59.940;30.280;2023-05-12T03:23:44;102346.19;;;23.59;28.16
41513;BME280;27244;59.940;30.280;2023-05-12T03:26:11;102360.28;;;23.63;28.31
41513;BME280;27244;59.940;30.280;2023-05-12T03:28:39;102350.25;;;23.62;27.97
41513;BME280;27244;59.940;30.280;2023-05-12T03:31:06;102357.88;;;23.61;28.35
41513;BME280;27244;59.940;30.280;2023-05-12T03:33:33;102353.44;;;23.60;28.23
41513;BME280;27244;59.940;30.280;2023-05-12T03:36:00;102360.72;;;23.61;28.24
41513;BME280;27244;59.940;30.280;2023-05-12T03:38:27;102353.44;;;23.60;28.39
41513;BME280;27244;59.940;30.280;2023-05-12T03:41:02;102359.06;;;23.67;28.47
41513;BME280;27244;59.940;30.280;2023-05-12T03:43:29;102357.88;;;23.61;28.60
41513;BME280;27244;59.940;30.280;2023-05-12T03:45:58;102363.09;;;23.63;28.44
41513;BME280;27244;59.940;30.280;2023-05-12T03:48:25;102359.50;;;23.62;28.66
41513;BME280;27244;59.940;30.280;2023-05-12T03:50:52;102362.31;;;23.62;28.64
41513;BME280;27244;59.940;30.280;2023-05-12T03:53:20;102363.91;;;23.60;28.68
41513;BME280;27244;59.940;30.280;2023-05-12T03:55:47;102363.09;;;23.63;28.63
41513;BME280;27244;59.940;30.280;2023-05-12T03:58:14;102360.72;;;23.61;28.61
41513;BME280;27244;59.940;30.280;2023-05-12T04:00:41;102358.69;;;23.58;28.72
41513;BME280;27244;59.940;30.280;2023-05-12T04:03:09;102370.78;;;23.62;28.66
41513;BME280;27244;59.940;30.280;2023-05-12T04:05:36;102364.34;;;23.58;28.62
41513;BME280;27244;59.940;30.280;2023-05-12T04:08:04;102363.91;;;23.63;28.56
41513;BME280;27244;59.940;30.280;2023-05-12T04:10:30;102367.16;;;23.62;28.49
41513;BME280;27244;59.940;30.280;2023-05-12T04:12:57;102367.16;;;23.62;28.75
41513;BME280;27244;59.940;30.280;2023-05-12T04:15:24;102368.34;;;23.61;28.66
41513;BME280;27244;59.940;30.280;2023-05-12T04:17:51;102373.19;;;23.60;28.67
41513;BME280;27244;59.940;30.280;2023-05-12T04:20:19;102366.34;;;23.61;28.41
41513;BME280;27244;59.940;30.280;2023-05-12T04:22:46;102370.34;;;23.60;28.84
41513;BME280;27244;59.940;30.280;2023-05-12T04:25:14;102371.56;;;23.59;28.82
41513;BME280;27244;59.940;30.280;2023-05-12T04:27:40;102367.16;;;23.55;28.69
41513;BME280;27244;59.940;30.280;2023-05-12T04:30:08;102375.19;;;23.60;28.55
41513;BME280;27244;59.940;30.280;2023-05-12T04:32:37;102386.44;;;23.60;28.68
41513;BME280;27244;59.940;30.280;2023-05-12T04:35:05;102388.47;;;23.59;28.63
41513;BME280;27244;59.940;30.280;2023-05-12T04:37:34;102387.66;;;23.59;28.77
41513;BME280;27244;59.940;30.280;2023-05-12T04:40:01;102387.25;;;23.60;28.58
41513;BME280;27244;59.940;30.280;2023-05-12T04:42:29;102392.91;;;23.60;28.77
41513;BME280;27244;59.940;30.280;2023-05-12T04:44:56;102394.09;;;23.59;28.82
41513;BME280;27244;59.940;30.280;2023-05-12T04:47:23;102392.91;;;23.60;28.70
41513;BME280;27244;59.940;30.280;2023-05-12T04:49:50;102392.50;;;23.58;28.75
41513;BME280;27244;59.940;30.280;2023-05-12T04:52:17;102401.34;;;23.60;28.90
41513;BME280;27244;59.940;30.280;2023-05-12T04:54:47;102402.53;;;23.59;28.80
41513;BME280;27244;59.940;30.280;2023-05-12T04:57:14;102401.72;;;23.59;28.97
41513;BME280;27244;59.940;30.280;2023-05-12T04:59:41;102391.28;;;23.59;29.06
41513;BME280;27244;59.940;30.280;2023-05-12T05:02:08;102393.72;;;23.57;29.33
41513;BME280;27244;59.940;30.280;2023-05-12T05:04:35;102401.72;;;23.59;29.25
41513;BME280;27244;59.940;30.280;2023-05-12T05:07:02;102402.53;;;23.59;29.12
41513;BME280;27244;59.940;30.280;2023-05-12T05:09:30;102408.19;;;23.59;29.14
41513;BME280;27244;59.940;30.280;2023-05-12T05:11:58;102409.00;;;23.56;29.04
41513;BME280;27244;59.940;30.280;2023-05-12T05:14:25;102413.81;;;23.59;28.96
41513;BME280;27244;59.940;30.280;2023-05-12T05:16:53;102418.63;;;23.59;29.00
41513;BME280;27244;59.940;30.280;2023-05-12T05:19:20;102417.44;;;23.56;29.01
41513;BME280;27244;59.940;30.280;2023-05-12T05:21:47;102417.06;;;23.58;29.08
41513;BME280;27244;59.940;30.280;2023-05-12T05:24:14;102413.81;;;23.56;28.95
41513;BME280;27244;59.940;30.280;2023-05-12T05:26:42;102415.03;;;23.58;28.96
41513;BME280;27244;59.940;30.280;2023-05-12T05:29:10;102415.03;;;23.58;29.15
41513;BME280;27244;59.940;30.280;2023-05-12T05:31:37;102425.09;;;23.56;28.89
41513;BME280;27244;59.940;30.280;2023-05-12T05:34:04;102412.22;;;23.51;29.11
41513;BME280;27244;59.940;30.280;2023-05-12T05:36:31;102417.44;;;23.52;29.07
41513;BME280;27244;59.940;30.280;2023-05-12T05:38:58;102420.25;;;23.56;29.08
41513;BME280;27244;59.940;30.280;2023-05-12T05:41:25;102420.25;;;23.56;29.03
41513;BME280;27244;59.940;30.280;2023-05-12T05:43:52;102422.69;;;23.58;29.09
41513;BME280;27244;59.940;30.280;2023-05-12T05:46:20;102419.44;;;23.59;29.19
41513;BME280;27244;59.940;30.280;2023-05-12T05:48:47;102424.69;;;23.57;29.02
41513;BME280;27244;59.940;30.280;2023-05-12T05:51:15;102419.06;;;23.57;28.95
41513;BME280;27244;59.940;30.280;2023-05-12T05:53:42;102412.22;;;23.55;29.40
41513;BME280;27244;59.940;30.280;2023-05-12T05:56:10;102426.69;;;23.57;29.73
41513;BME280;27244;59.940;30.280;2023-05-12T05:58:37;102422.69;;;23.58;29.63
41513;BME280;27244;59.940;30.280;2023-05-12T06:01:05;102424.69;;;23.57;29.51
41513;BME280;27244;59.940;30.280;2023-05-12T06:03:34;102419.88;;;23.54;29.78
41513;BME280;27244;59.940;30.280;2023-05-12T06:06:01;102425.50;;;23.58;29.63
41513;BME280;27244;59.940;30.280;2023-05-12T06:08:29;102431.13;;;23.58;29.71
41513;BME280;27244;59.940;30.280;2023-05-12T06:10:56;102419.44;;;23.52;29.65
41513;BME280;27244;59.940;30.280;2023-05-12T06:13:23;102420.69;;;23.58;29.51
41513;BME280;27244;59.940;30.280;2023-05-12T06:15:50;102424.28;;;23.59;29.93
41513;BME280;27244;59.940;30.280;2023-05-12T06:18:17;102419.44;;;23.59;29.46
41513;BME280;27244;59.940;30.280;2023-05-12T06:20:45;102420.25;;;23.60;29.58
41513;BME280;27244;59.940;30.280;2023-05-12T06:23:12;102428.31;;;23.58;29.16
41513;BME280;27244;59.940;30.280;2023-05-12T06:25:39;102419.06;;;23.53;28.94
41513;BME280;27244;59.940;30.280;2023-05-12T06:28:06;102425.09;;;23.56;29.02
41513;BME280;27244;59.940;30.280;2023-05-12T06:30:33;102421.06;;;23.57;29.59
41513;BME280;27244;59.940;30.280;2023-05-12T06:33:00;102427.50;;;23.57;29.65
41513;BME280;27244;59.940;30.280;2023-05-12T06:35:27;102427.50;;;23.57;29.48
41513;BME280;27244;59.940;30.280;2023-05-12T06:37:55;102423.50;;;23.58;29.17
41513;BME280;27244;59.940;30.280;2023-05-12T06:40:24;102425.50;;;23.58;29.07
41513;BME280;27244;59.940;30.280;2023-05-12T06:42:52;102429.13;;;23.58;29.02
41513;BME280;27244;59.940;30.280;2023-05-12T06:45:19;102424.69;;;23.50;28.86
41513;BME280;27244;59.940;30.280;2023-05-12T06:47:48;102434.34;;;23.56;29.00
41513;BME280;27244;59.940;30.280;2023-05-12T06:50:15;102429.91;;;23.55;29.19
41513;BME280;27244;59.940;30.280;2023-05-12T06:52:42;102431.94;;;23.55;29.82
41513;BME280;27244;59.940;30.280;2023-05-12T06:55:10;102436.34;;;23.56;29.68
41513;BME280;27244;59.940;30.280;2023-05-12T06:57:37;102437.97;;;23.57;29.41
41513;BME280;27244;59.940;30.280;2023-05-12T07:00:05;102434.34;;;23.56;29.12
41513;BME280;27244;59.940;30.280;2023-05-12T07:02:32;102424.69;;;23.50;29.06
41513;BME280;27244;59.940;30.280;2023-05-12T07:04:59;102437.16;;;23.56;29.07
41513;BME280;27244;59.940;30.280;2023-05-12T07:07:26;102442.78;;;23.56;29.10
41513;BME280;27244;59.940;30.280;2023-05-12T07:09:53;102441.97;;;23.56;29.03
41513;BME280;27244;59.940;30.280;2023-05-12T07:12:21;102442.41;;;23.58;28.92
41513;BME280;27244;59.940;30.280;2023-05-12T07:14:48;102444.00;;;23.55;29.14
41513;BME280;27244;59.940;30.280;2023-05-12T07:17:15;102446.03;;;23.55;29.04
41513;BME280;27244;59.940;30.280;2023-05-12T07:19:42;102447.63;;;23.56;29.10
41513;BME280;27244;59.940;30.280;2023-05-12T07:22:09;102444.41;;;23.53;29.00
41513;BME280;27244;59.940;30.280;2023-05-12T07:24:36;102448.03;;;23.54;29.08
41513;BME280;27244;59.940;30.280;2023-05-12T07:27:03;102442.00;;;23.52;28.98
41513;BME280;27244;59.940;30.280;2023-05-12T07:29:31;102444.00;;;23.55;29.01
41513;BME280;27244;59.940;30.280;2023-05-12T07:31:58;102445.22;;;23.54;29.29
41513;BME280;27244;59.940;30.280;2023-05-12T07:34:25;102448.84;;;23.55;29.01
41513;BME280;27244;59.940;30.280;2023-05-12T07:36:52;102450.84;;;23.54;29.26
41513;BME280;27244;59.940;30.280;2023-05-12T07:39:19;102446.03;;;23.55;29.27
41513;BME280;27244;59.940;30.280;2023-05-12T07:41:48;102448.03;;;23.54;29.15
41513;BME280;27244;59.940;30.280;2023-05-12T07:44:15;102448.84;;;23.55;29.05
41513;BME280;27244;59.940;30.280;2023-05-12T07:46:43;102450.84;;;23.54;29.05
41513;BME280;27244;59.940;30.280;2023-05-12T07:49:10;102450.84;;;23.54;29.00
41513;BME280;27244;59.940;30.280;2023-05-12T07:51:37;102448.03;;;23.54;29.09
41513;BME280;27244;59.940;30.280;2023-05-12T07:54:04;102452.88;;;23.53;29.09
41513;BME280;27244;59.940;30.280;2023-05-12T07:56:32;102445.63;;;23.52;29.04
41513;BME280;27244;59.940;30.280;2023-05-12T07:58:59;102445.22;;;23.54;29.02
41513;BME280;27244;59.940;30.280;2023-05-12T08:01:25;102454.47;;;23.55;29.21
41513;BME280;27244;59.940;30.280;2023-05-12T08:03:54;102448.44;;;23.52;28.98
41513;BME280;27244;59.940;30.280;2023-05-12T08:06:20;102450.03;;;23.50;28.92
41513;BME280;27244;59.940;30.280;2023-05-12T08:08:47;102444.00;;;23.55;35.03
41513;BME280;27244;59.940;30.280;2023-05-12T08:11:14;102454.06;;;23.56;38.45
41513;BME280;27244;59.940;30.280;2023-05-12T08:13:41;102455.69;;;23.57;36.12
41513;BME280;27244;59.940;30.280;2023-05-12T08:16:08;102456.50;;;23.58;35.52
41513;BME280;27244;59.940;30.280;2023-05-12T08:18:35;102447.22;;;23.57;34.76
41513;BME280;27244;59.940;30.280;2023-05-12T08:21:04;102452.84;;;23.61;34.19
41513;BME280;27244;59.940;30.280;2023-05-12T08:23:31;102451.25;;;23.60;33.89
41513;BME280;27244;59.940;30.280;2023-05-12T08:25:58;102448.03;;;23.61;33.49
41513;BME280;27244;59.940;30.280;2023-05-12T08:28:25;102444.00;;;23.59;33.11
41513;BME280;27244;59.940;30.280;2023-05-12T08:30:51;102447.63;;;23.59;33.23
41513;BME280;27244;59.940;30.280;2023-05-12T08:33:18;102449.25;;;23.60;32.78
41513;BME280;27244;59.940;30.280;2023-05-12T08:35:45;102448.03;;;23.61;32.88
41513;BME280;27244;59.940;30.280;2023-05-12T08:38:14;102446.84;;;23.62;33.00
41513;BME280;27244;59.940;30.280;2023-05-12T08:40:46;102444.78;;;23.66;32.52
41513;BME280;27244;59.940;30.280;2023-05-12T08:43:24;102446.84;;;23.66;32.22
41513;BME280;27244;59.940;30.280;2023-05-12T08:45:54;102450.84;;;23.61;31.61
41513;BME280;27244;59.940;30.280;2023-05-12T08:48:24;102450.84;;;23.61;31.34
41513;BME280;27244;59.940;30.280;2023-05-12T08:50:53;102442.41;;;23.61;31.31
41513;BME280;27244;59.940;30.280;2023-05-12T08:53:23;102440.41;;;23.58;31.21
41513;BME280;27244;59.940;30.280;2023-05-12T08:55:52;102443.59;;;23.57;31.07
41513;BME280;27244;59.940;30.280;2023-05-12T08:58:20;102447.63;;;23.59;31.19
41513;BME280;27244;59.940;30.280;2023-05-12T09:00:49;102440.78;;;23.60;31.03
41513;BME280;27244;59.940;30.280;2023-05-12T09:03:16;102442.78;;;23.56;31.03
41513;BME280;27244;59.940;30.280;2023-05-12T09:05:46;102440.41;;;23.55;30.90
41513;BME280;27244;59.940;30.280;2023-05-12T09:08:13;102446.03;;;23.58;30.87
41513;BME280;27244;59.940;30.280;2023-05-12T09:10:42;102437.97;;;23.57;30.69
41513;BME280;27244;59.940;30.280;2023-05-12T09:13:12;102443.59;;;23.60;30.92
41513;BME280;27244;59.940;30.280;2023-05-12T09:15:45;102440.41;;;23.58;31.14
41513;BME280;27244;59.940;30.280;2023-05-12T09:18:13;102436.34;;;23.56;30.94
41513;BME280;27244;59.940;30.280;2023-05-12T09:20:39;102434.34;;;23.56;30.75
41513;BME280;27244;59.940;30.280;2023-05-12T09:23:17;102440.41;;;23.62;30.81
41513;BME280;27244;59.940;30.280;2023-05-12T09:25:45;102436.78;;;23.58;30.71
41513;BME280;27244;59.940;30.280;2023-05-12T09:28:14;102443.22;;;23.58;30.88
41513;BME280;27244;59.940;30.280;2023-05-12T09:30:41;102438.78;;;23.57;30.84
41513;BME280;27244;59.940;30.280;2023-05-12T09:33:09;102441.19;;;23.59;30.86
41513;BME280;27244;59.940;30.280;2023-05-12T09:35:37;102439.59;;;23.58;30.69
41513;BME280;27244;59.940;30.280;2023-05-12T09:38:06;102429.91;;;23.55;30.81
41513;BME280;27244;59.940;30.280;2023-05-12T09:40:33;102429.13;;;23.58;30.76
41513;BME280;27244;59.940;30.280;2023-05-12T09:43:01;102433.53;;;23.59;30.64
41513;BME280;27244;59.940;30.280;2023-05-12T09:45:32;102432.34;;;23.60;30.69
41513;BME280;27244;59.940;30.280;2023-05-12T09:48:06;102425.09;;;23.59;30.61
41513;BME280;27244;59.940;30.280;2023-05-12T09:50:42;102429.94;;;23.62;30.42
41513;BME280;27244;59.940;30.280;2023-05-12T09:53:10;102427.50;;;23.57;30.42
41513;BME280;27244;59.940;30.280;2023-05-12T09:55:37;102418.63;;;23.55;30.32
41513;BME280;27244;59.940;30.280;2023-05-12T09:58:07;102421.47;;;23.59;30.23
41513;BME280;27244;59.940;30.280;2023-05-12T10:00:35;102423.88;;;23.57;30.26
41513;BME280;27244;59.940;30.280;2023-05-12T10:03:09;102420.25;;;23.60;30.11
41513;BME280;27244;59.940;30.280;2023-05-12T10:05:41;102420.69;;;23.55;30.52
41513;BME280;27244;59.940;30.280;2023-05-12T10:08:14;102421.06;;;23.60;30.62
41513;BME280;27244;59.940;30.280;2023-05-12T10:10:44;102427.09;;;23.59;30.66
41513;BME280;27244;59.940;30.280;2023-05-12T10:13:15;102415.81;;;23.59;30.60
41513;BME280;27244;59.940;30.280;2023-05-12T10:15:43;102421.88;;;23.57;31.06
41513;BME280;27244;59.940;30.280;2023-05-12T10:18:10;102429.13;;;23.58;30.63
41513;BME280;27244;59.940;30.280;2023-05-12T10:20:39;102422.69;;;23.58;30.48
41513;BME280;27244;59.940;30.280;2023-05-12T10:23:07;102429.13;;;23.58;30.16
41513;BME280;27244;59.940;30.280;2023-05-12T10:25:39;102424.28;;;23.59;30.10
41513;BME280;27244;59.940;30.280;2023-05-12T10:28:07;102421.47;;;23.55;30.10
41513;BME280;27244;59.940;30.280;2023-05-12T10:30:36;102416.25;;;23.57;29.96
41513;BME280;27244;59.940;30.280;2023-05-12T10:33:04;102427.50;;;23.57;30.00
41513;BME280;27244;59.940;30.280;2023-05-12T10:35:34;102428.72;;;23.56;29.94
41513;BME280;27244;59.940;30.280;2023-05-12T10:38:04;102417.88;;;23.55;29.85
41513;BME280;27244;59.940;30.280;2023-05-12T10:40:32;102418.63;;;23.55;29.62
41513;BME280;27244;59.940;30.280;2023-05-12T10:42:58;102414.63;;;23.52;29.68
41513;BME280;27244;59.940;30.280;2023-05-12T10:45:26;102425.09;;;23.56;29.59
41513;BME280;27244;59.940;30.280;2023-05-12T10:48:06;102421.47;;;23.62;29.59
41513;BME280;27244;59.940;30.280;2023-05-12T10:50:34;102417.88;;;23.55;29.49
41513;BME280;27244;59.940;30.280;2023-05-12T10:53:00;102423.06;;;23.52;29.41
41513;BME280;27244;59.940;30.280;2023-05-12T10:55:32;102412.22;;;23.51;29.30
41513;BME280;27244;59.940;30.280;2023-05-12T10:58:05;102415.41;;;23.74;29.23
41513;BME280;27244;59.940;30.280;2023-05-12T11:00:42;102408.59;;;23.58;29.08
41513;BME280;27244;59.940;30.280;2023-05-12T11:03:15;102416.25;;;23.57;29.03
41513;BME280;27244;59.940;30.280;2023-05-12T11:05:43;102415.06;;;23.51;29.16
41513;BME280;27244;59.940;30.280;2023-05-12T11:12:09;102408.19;;;23.52;28.97
41513;BME280;27244;59.940;30.280;2023-05-12T11:14:45;102414.25;;;23.50;28.92
41513;BME280;27244;59.940;30.280;2023-05-12T11:17:13;102407.38;;;23.48;29.14
41513;BME280;27244;59.940;30.280;2023-05-12T11:19:46;102415.44;;;23.53;28.96
41513;BME280;27244;59.940;30.280;2023-05-12T11:22:16;102402.56;;;23.48;28.96
41513;BME280;27244;59.940;30.280;2023-05-12T11:24:43;102404.56;;;23.48;28.87
41513;BME280;27244;59.940;30.280;2023-05-12T11:27:12;102406.59;;;23.47;28.88
41513;BME280;27244;59.940;30.280;2023-05-12T11:29:39;102403.78;;;23.44;28.76
41513;BME280;27244;59.940;30.280;2023-05-12T11:32:09;102402.97;;;23.50;28.70
41513;BME280;27244;59.940;30.280;2023-05-12T11:34:41;102402.56;;;23.48;28.80
41513;BME280;27244;59.940;30.280;2023-05-12T11:37:09;102409.00;;;23.49;28.64
41513;BME280;27244;59.940;30.280;2023-05-12T11:39:36;102388.06;;;23.39;28.64
41513;BME280;27244;59.940;30.280;2023-05-12T11:42:05;102413.00;;;23.48;28.61
41513;BME280;27244;59.940;30.280;2023-05-12T11:44:32;102405.78;;;23.47;28.23
41513;BME280;27244;59.940;30.280;2023-05-12T11:47:01;102399.34;;;23.46;28.53
41513;BME280;27244;59.940;30.280;2023-05-12T11:49:29;102407.81;;;23.46;28.53
41513;BME280;27244;59.940;30.280;2023-05-12T11:51:58;102399.34;;;23.46;28.80
41513;BME280;27244;59.940;30.280;2023-05-12T11:54:28;102401.75;;;23.51;29.04
41513;BME280;27244;59.940;30.280;2023-05-12T11:56:56;102385.66;;;23.45;29.01
41513;BME280;27244;59.940;30.280;2023-05-12T11:59:28;102395.72;;;23.53;29.09
41513;BME280;27244;59.940;30.280;2023-05-12T12:01:55;102386.47;;;23.49;29.10
41513;BME280;27244;59.940;30.280;2023-05-12T12:04:33;102396.53;;;23.57;28.85
41513;BME280;27244;59.940;30.280;2023-05-12T12:07:00;102392.91;;;23.49;28.84
41513;BME280;27244;59.940;30.280;2023-05-12T12:09:33;102381.25;;;23.55;28.78
41513;BME280;27244;59.940;30.280;2023-05-12T12:12:01;102386.88;;;23.51;28.82
41513;BME280;27244;59.940;30.280;2023-05-12T12:14:30;102378.81;;;23.53;28.77
41513;BME280;27244;59.940;30.280;2023-05-12T12:16:57;102382.84;;;23.52;28.79
41513;BME280;27244;59.940;30.280;2023-05-12T12:19:24;102376.00;;;23.53;28.73
41513;BME280;27244;59.940;30.280;2023-05-12T12:21:52;102374.38;;;23.52;28.70
41513;BME280;27244;59.940;30.280;2023-05-12T12:24:19;102392.91;;;23.53;28.66
41513;BME280;27244;59.940;30.280;2023-05-12T12:26:47;102371.97;;;23.54;28.62
41513;BME280;27244;59.940;30.280;2023-05-12T12:29:15;102364.34;;;23.55;28.43
41513;BME280;27244;59.940;30.280;2023-05-12T12:31:42;102368.34;;;23.53;28.52
41513;BME280;27244;59.940;30.280;2023-05-12T12:34:09;102372.78;;;23.55;28.47
41513;BME280;27244;59.940;30.280;2023-05-12T12:36:36;102367.94;;;23.48;28.26
41513;BME280;27244;59.940;30.280;2023-05-12T12:39:03;102386.06;;;23.54;28.27
41513;BME280;27244;59.940;30.280;2023-05-12T12:41:30;102376.81;;;23.53;28.04
41513;BME280;27244;59.940;30.280;2023-05-12T12:43:58;102373.56;;;23.55;28.20
41513;BME280;27244;59.940;30.280;2023-05-12T12:46:25;102365.53;;;23.53;28.32
41513;BME280;27244;59.940;30.280;2023-05-12T12:48:52;102380.44;;;23.54;28.11